sensor_id;sensor_type;location;lat;lon;timestamp;P1;durP1;ratioP1;P2;durP2;ratioP2
55082;SDS011;40978;52.850;6.506;2023-05-10T00:01:24;15.80;;;14.25;;
55082;SDS011;40978;52.850;6.506;2023-05-10T00:03:49;16.85;;;15.15;;
55082;SDS011;40978;52.850;6.506;2023-05-10T00:06:15;18.75;;;14.98;;
55082;SDS011;40978;52.850;6.506;2023-05-10T00:08:41;17.45;;;15.65;;
55082;SDS011;40978;52.850;6.506;2023-05-10T00:11:06;24.67;;;17.52;;
55082;SDS011;40978;52.850;6.506;2023-05-10T00:13:32;16.17;;;14.38;;
55082;SDS011;40978;52.850;6.506;2023-05-10T00:15:58;16.98;;;14.50;;
55082;SDS011;40978;52.850;6.506;2023-05-10T00:18:24;18.23;;;13.23;;
55082;SDS011;40978;52.850;6.506;2023-05-10T00:20:50;25.40;;;15.50;;
55082;SDS011;40978;52.850;6.506;2023-05-10T00:23:15;16.20;;;13.27;;
55082;SDS011;40978;52.850;6.506;2023-05-10T00:25:41;16.05;;;13.18;;
55082;SDS011;40978;52.850;6.506;2023-05-10T00:28:07;15.55;;;13.90;;
55082;SDS011;40978;52.850;6.506;2023-05-10T00:30:32;16.55;;;13.57;;
55082;SDS011;40978;52.850;6.506;2023-05-10T00:32:58;16.38;;;13.18;;
55082;SDS011;40978;52.850;6.506;2023-05-10T00:35:24;21.35;;;13.70;;
55082;SDS011;40978;52.850;6.506;2023-05-10T00:37:51;16.70;;;14.40;;
55082;SDS011;40978;52.850;6.506;2023-05-10T00:40:16;17.30;;;14.23;;
55082;SDS011;40978;52.850;6.506;2023-05-10T00:42:42;18.23;;;14.13;;
55082;SDS011;40978;52.850;6.506;2023-05-10T00:45:08;17.08;;;13.77;;
55082;SDS011;40978;52.850;6.506;2023-05-10T00:47:34;21.05;;;15.25;;
55082;SDS011;40978;52.850;6.506;2023-05-10T00:50:00;16.33;;;13.48;;
55082;SDS011;40978;52.850;6.506;2023-05-10T00:52:27;19.10;;;13.57;;
55082;SDS011;40978;52.850;6.506;2023-05-10T00:54:53;16.52;;;14.55;;
55082;SDS011;40978;52.850;6.506;2023-05-10T00:57:20;19.15;;;14.23;;
55082;SDS011;40978;52.850;6.506;2023-05-10T00:59:46;20.70;;;15.23;;
55082;SDS011;40978;52.850;6.506;2023-05-10T01:02:13;22.42;;;14.60;;
55082;SDS011;40978;52.850;6.506;2023-05-10T01:04:38;34.00;;;16.67;;
55082;SDS011;40978;52.850;6.506;2023-05-10T01:07:04;32.92;;;16.88;;
55082;SDS011;40978;52.850;6.506;2023-05-10T01:09:30;16.73;;;13.80;;
55082;SDS011;40978;52.850;6.506;2023-05-10T01:11:57;26.50;;;16.17;;
55082;SDS011;40978;52.850;6.506;2023-05-10T01:14:23;29.25;;;16.35;;
55082;SDS011;40978;52.850;6.506;2023-05-10T01:16:51;20.38;;;14.18;;
55082;SDS011;40978;52.850;6.506;2023-05-10T01:19:19;22.25;;;14.30;;
55082;SDS011;40978;52.850;6.506;2023-05-10T01:24:59;20.00;;;14.07;;
55082;SDS011;40978;52.850;6.506;2023-05-10T01:30:20;18.35;;;13.27;;
55082;SDS011;40978;52.850;6.506;2023-05-10T01:35:37;28.48;;;15.02;;
55082;SDS011;40978;52.850;6.506;2023-05-10T01:46:49;15.88;;;12.38;;
55082;SDS011;40978;52.850;6.506;2023-05-10T01:49:26;20.83;;;13.48;;
55082;SDS011;40978;52.850;6.506;2023-05-10T01:52:03;15.07;;;11.85;;
55082;SDS011;40978;52.850;6.506;2023-05-10T01:54:33;18.98;;;13.35;;
55082;SDS011;40978;52.850;6.506;2023-05-10T01:57:03;18.02;;;13.40;;
55082;SDS011;40978;52.850;6.506;2023-05-10T01:59:34;18.65;;;13.32;;
55082;SDS011;40978;52.850;6.506;2023-05-10T02:02:02;18.77;;;13.43;;
55082;SDS011;40978;52.850;6.506;2023-05-10T02:04:29;16.92;;;12.32;;
55082;SDS011;40978;52.850;6.506;2023-05-10T02:06:56;16.52;;;12.85;;
55082;SDS011;40978;52.850;6.506;2023-05-10T02:09:22;22.85;;;13.40;;
55082;SDS011;40978;52.850;6.506;2023-05-10T02:11:50;15.63;;;12.80;;
55082;SDS011;40978;52.850;6.506;2023-05-10T02:14:16;16.98;;;12.63;;
55082;SDS011;40978;52.850;6.506;2023-05-10T02:16:44;18.15;;;13.15;;
55082;SDS011;40978;52.850;6.506;2023-05-10T02:19:11;17.88;;;13.18;;
55082;SDS011;40978;52.850;6.506;2023-05-10T02:21:39;15.68;;;12.00;;
55082;SDS011;40978;52.850;6.506;2023-05-10T02:24:06;18.10;;;12.32;;
55082;SDS011;40978;52.850;6.506;2023-05-10T02:26:33;16.98;;;12.25;;
55082;SDS011;40978;52.850;6.506;2023-05-10T02:29:01;20.98;;;13.32;;
55082;SDS011;40978;52.850;6.506;2023-05-10T02:31:29;20.63;;;13.52;;
55082;SDS011;40978;52.850;6.506;2023-05-10T02:33:58;25.08;;;14.10;;
55082;SDS011;40978;52.850;6.506;2023-05-10T02:36:25;21.55;;;12.90;;
55082;SDS011;40978;52.850;6.506;2023-05-10T02:38:52;17.20;;;12.70;;
55082;SDS011;40978;52.850;6.506;2023-05-10T02:41:19;17.05;;;12.43;;
55082;SDS011;40978;52.850;6.506;2023-05-10T02:43:47;19.83;;;12.52;;
55082;SDS011;40978;52.850;6.506;2023-05-10T02:46:20;24.23;;;13.82;;
55082;SDS011;40978;52.850;6.506;2023-05-10T02:48:46;19.85;;;12.70;;
55082;SDS011;40978;52.850;6.506;2023-05-10T02:51:12;13.10;;;11.15;;
55082;SDS011;40978;52.850;6.506;2023-05-10T02:53:43;18.00;;;12.02;;
55082;SDS011;40978;52.850;6.506;2023-05-10T02:56:15;25.15;;;13.70;;
55082;SDS011;40978;52.850;6.506;2023-05-10T02:58:50;15.25;;;11.70;;
55082;SDS011;40978;52.850;6.506;2023-05-10T03:01:16;13.75;;;10.52;;
55082;SDS011;40978;52.850;6.506;2023-05-10T03:03:41;14.02;;;11.55;;
55082;SDS011;40978;52.850;6.506;2023-05-10T03:06:07;15.73;;;11.20;;
55082;SDS011;40978;52.850;6.506;2023-05-10T03:08:33;13.38;;;11.07;;
55082;SDS011;40978;52.850;6.506;2023-05-10T03:16:36;13.82;;;10.30;;
55082;SDS011;40978;52.850;6.506;2023-05-10T03:19:27;11.45;;;10.25;;
55082;SDS011;40978;52.850;6.506;2023-05-10T03:22:06;11.20;;;10.10;;
55082;SDS011;40978;52.850;6.506;2023-05-10T03:24:35;16.15;;;11.15;;
55082;SDS011;40978;52.850;6.506;2023-05-10T03:27:04;14.18;;;9.55;;
55082;SDS011;40978;52.850;6.506;2023-05-10T03:29:31;13.95;;;11.07;;
55082;SDS011;40978;52.850;6.506;2023-05-10T03:31:57;12.98;;;11.30;;
55082;SDS011;40978;52.850;6.506;2023-05-10T03:34:24;14.45;;;11.18;;
55082;SDS011;40978;52.850;6.506;2023-05-10T03:36:50;13.73;;;11.05;;
55082;SDS011;40978;52.850;6.506;2023-05-10T03:39:16;12.57;;;10.93;;
55082;SDS011;40978;52.850;6.506;2023-05-10T03:41:42;15.95;;;12.18;;
55082;SDS011;40978;52.850;6.506;2023-05-10T03:44:08;18.83;;;12.52;;
55082;SDS011;40978;52.850;6.506;2023-05-10T03:46:33;17.25;;;12.10;;
55082;SDS011;40978;52.850;6.506;2023-05-10T03:48:59;14.13;;;12.32;;
55082;SDS011;40978;52.850;6.506;2023-05-10T03:51:25;17.48;;;14.13;;
55082;SDS011;40978;52.850;6.506;2023-05-10T03:53:53;16.50;;;12.77;;
55082;SDS011;40978;52.850;6.506;2023-05-10T03:56:20;16.10;;;12.38;;
55082;SDS011;40978;52.850;6.506;2023-05-10T03:58:46;14.07;;;12.05;;
55082;SDS011;40978;52.850;6.506;2023-05-10T04:01:12;15.68;;;11.82;;
55082;SDS011;40978;52.850;6.506;2023-05-10T04:03:38;19.95;;;13.23;;
55082;SDS011;40978;52.850;6.506;2023-05-10T04:06:03;14.05;;;12.35;;
55082;SDS011;40978;52.850;6.506;2023-05-10T04:08:30;11.73;;;10.52;;
55082;SDS011;40978;52.850;6.506;2023-05-10T04:11:09;13.23;;;11.02;;
55082;SDS011;40978;52.850;6.506;2023-05-10T04:13:36;14.50;;;12.52;;
55082;SDS011;40978;52.850;6.506;2023-05-10T04:16:02;15.57;;;12.05;;
55082;SDS011;40978;52.850;6.506;2023-05-10T04:18:28;16.40;;;12.07;;
55082;SDS011;40978;52.850;6.506;2023-05-10T04:20:54;17.15;;;12.18;;
55082;SDS011;40978;52.850;6.506;2023-05-10T04:23:19;13.60;;;10.93;;
55082;SDS011;40978;52.850;6.506;2023-05-10T04:25:45;14.27;;;10.45;;
55082;SDS011;40978;52.850;6.506;2023-05-10T04:28:11;16.58;;;11.88;;
55082;SDS011;40978;52.850;6.506;2023-05-10T04:30:36;16.15;;;10.52;;
55082;SDS011;40978;52.850;6.506;2023-05-10T04:33:02;17.95;;;11.63;;
55082;SDS011;40978;52.850;6.506;2023-05-10T04:35:28;15.63;;;11.63;;
55082;SDS011;40978;52.850;6.506;2023-05-10T04:37:54;13.43;;;10.70;;
55082;SDS011;40978;52.850;6.506;2023-05-10T04:40:20;14.20;;;11.18;;
55082;SDS011;40978;52.850;6.506;2023-05-10T04:42:46;13.32;;;11.48;;
55082;SDS011;40978;52.850;6.506;2023-05-10T04:45:12;14.45;;;10.93;;
55082;SDS011;40978;52.850;6.506;2023-05-10T04:47:39;16.45;;;11.98;;
55082;SDS011;40978;52.850;6.506;2023-05-10T04:50:05;16.27;;;11.32;;
55082;SDS011;40978;52.850;6.506;2023-05-10T04:52:32;20.38;;;12.93;;
55082;SDS011;40978;52.850;6.506;2023-05-10T04:54:58;16.38;;;11.85;;
55082;SDS011;40978;52.850;6.506;2023-05-10T04:57:23;16.77;;;10.95;;
55082;SDS011;40978;52.850;6.506;2023-05-10T04:59:49;15.80;;;10.90;;
55082;SDS011;40978;52.850;6.506;2023-05-10T05:02:15;18.15;;;11.43;;
55082;SDS011;40978;52.850;6.506;2023-05-10T05:04:41;14.07;;;10.68;;
55082;SDS011;40978;52.850;6.506;2023-05-10T05:07:06;14.88;;;10.98;;
55082;SDS011;40978;52.850;6.506;2023-05-10T05:09:32;13.13;;;9.88;;
55082;SDS011;40978;52.850;6.506;2023-05-10T05:11:58;12.63;;;9.73;;
55082;SDS011;40978;52.850;6.506;2023-05-10T05:14:24;11.13;;;9.40;;
55082;SDS011;40978;52.850;6.506;2023-05-10T05:16:53;14.82;;;9.38;;
55082;SDS011;40978;52.850;6.506;2023-05-10T05:19:19;12.38;;;9.80;;
55082;SDS011;40978;52.850;6.506;2023-05-10T05:21:44;15.93;;;10.10;;
55082;SDS011;40978;52.850;6.506;2023-05-10T05:24:10;13.43;;;9.68;;
55082;SDS011;40978;52.850;6.506;2023-05-10T05:26:37;14.45;;;9.88;;
55082;SDS011;40978;52.850;6.506;2023-05-10T05:29:03;14.00;;;10.00;;
55082;SDS011;40978;52.850;6.506;2023-05-10T05:31:29;11.50;;;9.18;;
55082;SDS011;40978;52.850;6.506;2023-05-10T05:33:55;13.52;;;10.68;;
55082;SDS011;40978;52.850;6.506;2023-05-10T05:36:21;11.73;;;9.70;;
55082;SDS011;40978;52.850;6.506;2023-05-10T05:38:47;14.07;;;10.55;;
55082;SDS011;40978;52.850;6.506;2023-05-10T05:41:13;13.60;;;9.82;;
55082;SDS011;40978;52.850;6.506;2023-05-10T05:43:38;10.10;;;8.65;;
55082;SDS011;40978;52.850;6.506;2023-05-10T05:46:04;11.60;;;9.02;;
55082;SDS011;40978;52.850;6.506;2023-05-10T05:48:30;11.52;;;9.68;;
55082;SDS011;40978;52.850;6.506;2023-05-10T05:50:56;11.85;;;8.98;;
55082;SDS011;40978;52.850;6.506;2023-05-10T05:53:22;12.50;;;9.55;;
55082;SDS011;40978;52.850;6.506;2023-05-10T05:55:55;15.23;;;8.82;;
55082;SDS011;40978;52.850;6.506;2023-05-10T05:58:23;12.40;;;8.85;;
55082;SDS011;40978;52.850;6.506;2023-05-10T06:00:49;11.82;;;8.73;;
55082;SDS011;40978;52.850;6.506;2023-05-10T06:03:17;11.57;;;8.98;;
55082;SDS011;40978;52.850;6.506;2023-05-10T06:05:43;11.80;;;8.85;;
55082;SDS011;40978;52.850;6.506;2023-05-10T06:08:09;10.60;;;8.45;;
55082;SDS011;40978;52.850;6.506;2023-05-10T06:10:35;15.13;;;9.48;;
55082;SDS011;40978;52.850;6.506;2023-05-10T06:13:01;13.75;;;9.05;;
55082;SDS011;40978;52.850;6.506;2023-05-10T06:15:27;14.63;;;9.82;;
55082;SDS011;40978;52.850;6.506;2023-05-10T06:17:52;11.00;;;8.77;;
55082;SDS011;40978;52.850;6.506;2023-05-10T06:20:18;13.02;;;9.32;;
55082;SDS011;40978;52.850;6.506;2023-05-10T06:22:44;14.90;;;9.40;;
55082;SDS011;40978;52.850;6.506;2023-05-10T06:25:10;16.13;;;9.82;;
55082;SDS011;40978;52.850;6.506;2023-05-10T06:27:36;12.57;;;9.68;;
55082;SDS011;40978;52.850;6.506;2023-05-10T06:30:02;12.35;;;9.27;;
55082;SDS011;40978;52.850;6.506;2023-05-10T06:32:28;12.73;;;8.90;;
55082;SDS011;40978;52.850;6.506;2023-05-10T06:34:54;10.70;;;8.05;;
55082;SDS011;40978;52.850;6.506;2023-05-10T06:37:20;11.50;;;9.45;;
55082;SDS011;40978;52.850;6.506;2023-05-10T06:39:46;11.80;;;8.73;;
55082;SDS011;40978;52.850;6.506;2023-05-10T06:42:11;10.30;;;8.98;;
55082;SDS011;40978;52.850;6.506;2023-05-10T06:44:37;11.25;;;8.95;;
55082;SDS011;40978;52.850;6.506;2023-05-10T06:47:03;13.77;;;9.30;;
55082;SDS011;40978;52.850;6.506;2023-05-10T06:49:28;10.68;;;9.52;;
55082;SDS011;40978;52.850;6.506;2023-05-10T06:51:57;9.80;;;8.80;;
55082;SDS011;40978;52.850;6.506;2023-05-10T06:54:23;10.50;;;8.77;;
55082;SDS011;40978;52.850;6.506;2023-05-10T06:56:49;9.50;;;8.50;;
55082;SDS011;40978;52.850;6.506;2023-05-10T06:59:14;12.95;;;9.70;;
55082;SDS011;40978;52.850;6.506;2023-05-10T07:01:41;12.10;;;9.32;;
55082;SDS011;40978;52.850;6.506;2023-05-10T07:04:07;32.35;;;28.42;;
55082;SDS011;40978;52.850;6.506;2023-05-10T07:06:33;14.88;;;12.63;;
55082;SDS011;40978;52.850;6.506;2023-05-10T07:08:59;11.35;;;9.95;;
55082;SDS011;40978;52.850;6.506;2023-05-10T07:11:25;10.50;;;9.40;;
55082;SDS011;40978;52.850;6.506;2023-05-10T07:13:51;11.63;;;9.13;;
55082;SDS011;40978;52.850;6.506;2023-05-10T07:16:20;10.77;;;8.90;;
55082;SDS011;40978;52.850;6.506;2023-05-10T07:18:46;11.68;;;9.40;;
55082;SDS011;40978;52.850;6.506;2023-05-10T07:21:12;11.88;;;9.05;;
55082;SDS011;40978;52.850;6.506;2023-05-10T07:23:38;11.13;;;8.70;;
55082;SDS011;40978;52.850;6.506;2023-05-10T07:26:03;19.88;;;17.50;;
55082;SDS011;40978;52.850;6.506;2023-05-10T07:28:29;11.75;;;10.57;;
55082;SDS011;40978;52.850;6.506;2023-05-10T07:30:55;10.52;;;7.50;;
55082;SDS011;40978;52.850;6.506;2023-05-10T07:33:21;8.65;;;7.63;;
55082;SDS011;40978;52.850;6.506;2023-05-10T07:35:46;11.23;;;7.22;;
55082;SDS011;40978;52.850;6.506;2023-05-10T07:38:12;10.48;;;6.93;;
55082;SDS011;40978;52.850;6.506;2023-05-10T07:40:38;7.88;;;6.25;;
55082;SDS011;40978;52.850;6.506;2023-05-10T07:43:04;9.43;;;6.35;;
55082;SDS011;40978;52.850;6.506;2023-05-10T07:45:30;9.10;;;6.30;;
55082;SDS011;40978;52.850;6.506;2023-05-10T07:47:56;8.93;;;5.70;;
55082;SDS011;40978;52.850;6.506;2023-05-10T07:50:22;11.30;;;5.50;;
55082;SDS011;40978;52.850;6.506;2023-05-10T07:52:48;8.68;;;5.45;;
55082;SDS011;40978;52.850;6.506;2023-05-10T07:55:13;6.53;;;5.82;;
55082;SDS011;40978;52.850;6.506;2023-05-10T07:57:39;7.28;;;5.57;;
55082;SDS011;40978;52.850;6.506;2023-05-10T08:00:07;6.90;;;4.93;;
55082;SDS011;40978;52.850;6.506;2023-05-10T08:02:34;10.88;;;6.85;;
55082;SDS011;40978;52.850;6.506;2023-05-10T08:05:00;7.25;;;4.90;;
55082;SDS011;40978;52.850;6.506;2023-05-10T08:07:26;9.55;;;5.97;;
55082;SDS011;40978;52.850;6.506;2023-05-10T08:09:52;9.73;;;6.30;;
55082;SDS011;40978;52.850;6.506;2023-05-10T08:12:18;8.45;;;6.55;;
55082;SDS011;40978;52.850;6.506;2023-05-10T08:14:43;9.50;;;6.05;;
55082;SDS011;40978;52.850;6.506;2023-05-10T08:17:09;9.57;;;6.75;;
55082;SDS011;40978;52.850;6.506;2023-05-10T08:19:35;9.73;;;6.25;;
55082;SDS011;40978;52.850;6.506;2023-05-10T08:22:00;6.50;;;5.38;;
55082;SDS011;40978;52.850;6.506;2023-05-10T08:24:26;6.63;;;5.85;;
55082;SDS011;40978;52.850;6.506;2023-05-10T08:26:52;9.25;;;7.18;;
55082;SDS011;40978;52.850;6.506;2023-05-10T08:29:17;8.65;;;7.30;;
55082;SDS011;40978;52.850;6.506;2023-05-10T08:31:43;10.45;;;6.75;;
55082;SDS011;40978;52.850;6.506;2023-05-10T08:34:09;6.85;;;6.15;;
55082;SDS011;40978;52.850;6.506;2023-05-10T08:36:34;8.80;;;6.55;;
55082;SDS011;40978;52.850;6.506;2023-05-10T08:39:01;9.20;;;6.35;;
55082;SDS011;40978;52.850;6.506;2023-05-10T08:41:27;10.32;;;6.85;;
55082;SDS011;40978;52.850;6.506;2023-05-10T08:43:53;7.95;;;6.20;;
55082;SDS011;40978;52.850;6.506;2023-05-10T08:46:20;6.38;;;5.78;;
55082;SDS011;40978;52.850;6.506;2023-05-10T08:48:47;6.88;;;5.80;;
55082;SDS011;40978;52.850;6.506;2023-05-10T08:51:15;5.72;;;5.15;;
55082;SDS011;40978;52.850;6.506;2023-05-10T08:53:44;6.25;;;4.93;;
55082;SDS011;40978;52.850;6.506;2023-05-10T08:56:10;6.43;;;5.28;;
55082;SDS011;40978;52.850;6.506;2023-05-10T08:58:37;6.03;;;4.63;;
55082;SDS011;40978;52.850;6.506;2023-05-10T09:01:03;21.23;;;18.98;;
55082;SDS011;40978;52.850;6.506;2023-05-10T09:03:30;20.40;;;18.20;;
55082;SDS011;40978;52.850;6.506;2023-05-10T09:05:56;11.98;;;10.00;;
55082;SDS011;40978;52.850;6.506;2023-05-10T09:08:22;13.10;;;11.13;;
55082;SDS011;40978;52.850;6.506;2023-05-10T09:10:53;15.70;;;11.70;;
55082;SDS011;40978;52.850;6.506;2023-05-10T09:13:22;14.60;;;12.45;;
55082;SDS011;40978;52.850;6.506;2023-05-10T09:15:49;15.50;;;12.73;;
55082;SDS011;40978;52.850;6.506;2023-05-10T09:18:15;15.27;;;12.75;;
55082;SDS011;40978;52.850;6.506;2023-05-10T09:20:41;17.10;;;12.88;;
55082;SDS011;40978;52.850;6.506;2023-05-10T09:23:07;14.70;;;12.70;;
55082;SDS011;40978;52.850;6.506;2023-05-10T09:25:33;16.23;;;13.88;;
55082;SDS011;40978;52.850;6.506;2023-05-10T09:27:59;15.23;;;13.25;;
55082;SDS011;40978;52.850;6.506;2023-05-10T09:30:27;15.13;;;12.95;;
55082;SDS011;40978;52.850;6.506;2023-05-10T09:32:54;16.58;;;13.27;;
55082;SDS011;40978;52.850;6.506;2023-05-10T09:35:22;16.10;;;12.85;;
55082;SDS011;40978;52.850;6.506;2023-05-10T09:37:53;14.52;;;12.93;;
55082;SDS011;40978;52.850;6.506;2023-05-10T09:40:24;13.30;;;11.90;;
55082;SDS011;40978;52.850;6.506;2023-05-10T09:43:01;11.82;;;10.57;;
55082;SDS011;40978;52.850;6.506;2023-05-10T09:45:29;12.70;;;11.45;;
55082;SDS011;40978;52.850;6.506;2023-05-10T09:47:56;12.52;;;11.02;;
55082;SDS011;40978;52.850;6.506;2023-05-10T09:50:24;12.32;;;10.82;;
55082;SDS011;40978;52.850;6.506;2023-05-10T09:55:26;10.40;;;9.40;;
55082;SDS011;40978;52.850;6.506;2023-05-10T09:58:04;12.23;;;9.57;;
55082;SDS011;40978;52.850;6.506;2023-05-10T10:00:35;10.00;;;8.80;;
55082;SDS011;40978;52.850;6.506;2023-05-10T10:03:03;10.02;;;9.02;;
55082;SDS011;40978;52.850;6.506;2023-05-10T10:05:30;10.13;;;9.13;;
55082;SDS011;40978;52.850;6.506;2023-05-10T10:07:57;11.55;;;9.70;;
55082;SDS011;40978;52.850;6.506;2023-05-10T10:10:27;11.82;;;9.52;;
55082;SDS011;40978;52.850;6.506;2023-05-10T10:12:53;11.25;;;8.73;;
55082;SDS011;40978;52.850;6.506;2023-05-10T10:15:20;11.32;;;8.45;;
55082;SDS011;40978;52.850;6.506;2023-05-10T10:17:46;10.20;;;8.27;;
55082;SDS011;40978;52.850;6.506;2023-05-10T10:20:14;9.85;;;8.45;;
55082;SDS011;40978;52.850;6.506;2023-05-10T10:22:40;9.05;;;8.07;;
55082;SDS011;40978;52.850;6.506;2023-05-10T10:25:09;10.40;;;7.72;;
55082;SDS011;40978;52.850;6.506;2023-05-10T10:27:43;8.50;;;7.00;;
55082;SDS011;40978;52.850;6.506;2023-05-10T10:36:20;7.40;;;6.70;;
55082;SDS011;40978;52.850;6.506;2023-05-10T10:52:32;5.97;;;5.43;;
55082;SDS011;40978;52.850;6.506;2023-05-10T10:57:51;5.72;;;5.15;;
55082;SDS011;40978;52.850;6.506;2023-05-10T11:00:26;6.65;;;5.72;;
55082;SDS011;40978;52.850;6.506;2023-05-10T11:03:05;6.18;;;5.60;;
55082;SDS011;40978;52.850;6.506;2023-05-10T11:05:36;6.50;;;5.63;;
55082;SDS011;40978;52.850;6.506;2023-05-10T11:08:12;6.95;;;6.20;;
55082;SDS011;40978;52.850;6.506;2023-05-10T11:10:38;8.05;;;7.35;;
55082;SDS011;40978;52.850;6.506;2023-05-10T11:15:31;8.35;;;7.10;;
55082;SDS011;40978;52.850;6.506;2023-05-10T11:17:58;8.25;;;7.45;;
55082;SDS011;40978;52.850;6.506;2023-05-10T11:20:27;7.78;;;7.00;;
55082;SDS011;40978;52.850;6.506;2023-05-10T11:23:00;8.55;;;6.97;;
55082;SDS011;40978;52.850;6.506;2023-05-10T11:25:41;9.02;;;7.22;;
55082;SDS011;40978;52.850;6.506;2023-05-10T11:28:09;8.07;;;7.25;;
55082;SDS011;40978;52.850;6.506;2023-05-10T11:30:35;8.45;;;7.57;;
55082;SDS011;40978;52.850;6.506;2023-05-10T11:33:03;8.38;;;7.53;;
55082;SDS011;40978;52.850;6.506;2023-05-10T11:35:29;8.75;;;7.65;;
55082;SDS011;40978;52.850;6.506;2023-05-10T11:37:54;8.82;;;7.30;;
55082;SDS011;40978;52.850;6.506;2023-05-10T11:40:23;8.75;;;7.85;;
55082;SDS011;40978;52.850;6.506;2023-05-10T11:42:50;8.25;;;7.45;;
55082;SDS011;40978;52.850;6.506;2023-05-10T11:45:15;8.50;;;7.60;;
55082;SDS011;40978;52.850;6.506;2023-05-10T11:47:41;8.43;;;6.93;;
55082;SDS011;40978;52.850;6.506;2023-05-10T11:50:08;8.35;;;7.00;;
55082;SDS011;40978;52.850;6.506;2023-05-10T11:52:36;7.88;;;7.13;;
55082;SDS011;40978;52.850;6.506;2023-05-10T11:55:05;10.40;;;7.22;;
55082;SDS011;40978;52.850;6.506;2023-05-10T11:57:31;9.43;;;8.52;;
55082;SDS011;40978;52.850;6.506;2023-05-10T11:59:57;9.88;;;8.02;;
55082;SDS011;40978;52.850;6.506;2023-05-10T12:02:23;9.75;;;7.85;;
55082;SDS011;40978;52.850;6.506;2023-05-10T12:04:49;8.55;;;7.50;;
55082;SDS011;40978;52.850;6.506;2023-05-10T12:07:16;8.25;;;7.43;;
55082;SDS011;40978;52.850;6.506;2023-05-10T12:10:01;8.35;;;7.13;;
55082;SDS011;40978;52.850;6.506;2023-05-10T12:12:38;6.35;;;5.75;;
55082;SDS011;40978;52.850;6.506;2023-05-10T12:15:11;6.43;;;5.70;;
55082;SDS011;40978;52.850;6.506;2023-05-10T12:17:38;8.95;;;7.03;;
55082;SDS011;40978;52.850;6.506;2023-05-10T12:20:21;8.65;;;7.85;;
55082;SDS011;40978;52.850;6.506;2023-05-10T12:22:52;9.60;;;8.57;;
55082;SDS011;40978;52.850;6.506;2023-05-10T12:25:20;12.65;;;10.85;;
55082;SDS011;40978;52.850;6.506;2023-05-10T12:27:57;12.45;;;9.05;;
55082;SDS011;40978;52.850;6.506;2023-05-10T12:30:26;10.82;;;9.45;;
55082;SDS011;40978;52.850;6.506;2023-05-10T12:32:53;9.60;;;8.70;;
55082;SDS011;40978;52.850;6.506;2023-05-10T12:35:24;13.85;;;8.85;;
55082;SDS011;40978;52.850;6.506;2023-05-10T12:37:50;12.13;;;9.32;;
55082;SDS011;40978;52.850;6.506;2023-05-10T12:40:16;12.43;;;10.35;;
55082;SDS011;40978;52.850;6.506;2023-05-10T12:42:42;12.55;;;10.88;;
55082;SDS011;40978;52.850;6.506;2023-05-10T12:45:09;12.20;;;10.30;;
55082;SDS011;40978;52.850;6.506;2023-05-10T12:47:35;14.07;;;10.38;;
55082;SDS011;40978;52.850;6.506;2023-05-10T12:50:02;12.68;;;11.38;;
55082;SDS011;40978;52.850;6.506;2023-05-10T12:52:28;14.45;;;12.30;;
55082;SDS011;40978;52.850;6.506;2023-05-10T12:54:55;13.85;;;12.40;;
55082;SDS011;40978;52.850;6.506;2023-05-10T12:57:20;14.50;;;12.32;;
55082;SDS011;40978;52.850;6.506;2023-05-10T12:59:46;14.95;;;12.60;;
55082;SDS011;40978;52.850;6.506;2023-05-10T13:02:12;16.17;;;11.95;;
55082;SDS011;40978;52.850;6.506;2023-05-10T13:04:39;15.00;;;12.13;;
55082;SDS011;40978;52.850;6.506;2023-05-10T13:07:08;15.05;;;11.90;;
55082;SDS011;40978;52.850;6.506;2023-05-10T13:09:34;13.60;;;12.15;;
55082;SDS011;40978;52.850;6.506;2023-05-10T13:12:00;14.60;;;12.43;;
55082;SDS011;40978;52.850;6.506;2023-05-10T13:14:26;14.63;;;12.75;;
55082;SDS011;40978;52.850;6.506;2023-05-10T13:16:52;15.57;;;12.60;;
55082;SDS011;40978;52.850;6.506;2023-05-10T13:19:18;14.70;;;12.20;;
55082;SDS011;40978;52.850;6.506;2023-05-10T13:21:44;13.63;;;12.05;;
55082;SDS011;40978;52.850;6.506;2023-05-10T13:24:10;18.60;;;12.23;;
55082;SDS011;40978;52.850;6.506;2023-05-10T13:26:38;14.02;;;12.30;;
55082;SDS011;40978;52.850;6.506;2023-05-10T13:29:05;14.93;;;11.40;;
55082;SDS011;40978;52.850;6.506;2023-05-10T13:31:32;13.38;;;11.63;;
55082;SDS011;40978;52.850;6.506;2023-05-10T13:33:58;15.07;;;11.95;;
55082;SDS011;40978;52.850;6.506;2023-05-10T13:36:24;15.82;;;13.27;;
55082;SDS011;40978;52.850;6.506;2023-05-10T13:38:50;14.95;;;12.52;;
55082;SDS011;40978;52.850;6.506;2023-05-10T13:41:15;13.18;;;11.02;;
55082;SDS011;40978;52.850;6.506;2023-05-10T13:43:41;13.63;;;12.00;;
55082;SDS011;40978;52.850;6.506;2023-05-10T13:46:07;13.25;;;11.18;;
55082;SDS011;40978;52.850;6.506;2023-05-10T13:48:33;12.80;;;10.25;;
55082;SDS011;40978;52.850;6.506;2023-05-10T13:50:59;15.38;;;11.45;;
55082;SDS011;40978;52.850;6.506;2023-05-10T13:53:27;14.07;;;11.75;;
55082;SDS011;40978;52.850;6.506;2023-05-10T13:55:53;13.68;;;11.43;;
55082;SDS011;40978;52.850;6.506;2023-05-10T13:58:19;13.25;;;10.82;;
55082;SDS011;40978;52.850;6.506;2023-05-10T14:00:45;13.15;;;10.63;;
55082;SDS011;40978;52.850;6.506;2023-05-10T14:03:11;14.10;;;12.02;;
55082;SDS011;40978;52.850;6.506;2023-05-10T14:05:36;12.65;;;11.35;;
55082;SDS011;40978;52.850;6.506;2023-05-10T14:08:02;13.35;;;11.95;;
55082;SDS011;40978;52.850;6.506;2023-05-10T14:10:29;12.50;;;11.15;;
55082;SDS011;40978;52.850;6.506;2023-05-10T14:12:55;14.32;;;10.60;;
55082;SDS011;40978;52.850;6.506;2023-05-10T14:15:21;12.32;;;10.88;;
55082;SDS011;40978;52.850;6.506;2023-05-10T14:17:47;13.10;;;10.90;;
55082;SDS011;40978;52.850;6.506;2023-05-10T14:20:13;12.73;;;11.40;;
55082;SDS011;40978;52.850;6.506;2023-05-10T14:22:38;11.52;;;10.32;;
55082;SDS011;40978;52.850;6.506;2023-05-10T14:25:05;11.77;;;10.52;;
55082;SDS011;40978;52.850;6.506;2023-05-10T14:27:31;11.73;;;10.50;;
55082;SDS011;40978;52.850;6.506;2023-05-10T14:29:57;12.93;;;10.88;;
55082;SDS011;40978;52.850;6.506;2023-05-10T14:32:23;12.85;;;11.55;;
55082;SDS011;40978;52.850;6.506;2023-05-10T14:34:49;12.52;;;11.18;;
55082;SDS011;40978;52.850;6.506;2023-05-10T14:37:14;13.45;;;11.55;;
55082;SDS011;40978;52.850;6.506;2023-05-10T14:39:40;13.43;;;10.75;;
55082;SDS011;40978;52.850;6.506;2023-05-10T14:42:07;12.50;;;11.30;;
55082;SDS011;40978;52.850;6.506;2023-05-10T14:44:33;12.98;;;11.00;;
55082;SDS011;40978;52.850;6.506;2023-05-10T14:46:59;11.82;;;10.63;;
55082;SDS011;40978;52.850;6.506;2023-05-10T14:49:25;12.45;;;11.15;;
55082;SDS011;40978;52.850;6.506;2023-05-10T14:51:51;12.07;;;10.75;;
55082;SDS011;40978;52.850;6.506;2023-05-10T14:54:17;12.55;;;10.50;;
55082;SDS011;40978;52.850;6.506;2023-05-10T14:56:43;11.70;;;10.35;;
55082;SDS011;40978;52.850;6.506;2023-05-10T14:59:09;10.13;;;9.13;;
55082;SDS011;40978;52.850;6.506;2023-05-10T15:01:35;11.13;;;10.02;;
55082;SDS011;40978;52.850;6.506;2023-05-10T15:04:03;11.32;;;10.23;;
55082;SDS011;40978;52.850;6.506;2023-05-10T15:06:35;11.60;;;10.40;;
55082;SDS011;40978;52.850;6.506;2023-05-10T15:09:02;10.90;;;9.63;;
55082;SDS011;40978;52.850;6.506;2023-05-10T15:11:31;10.70;;;9.57;;
55082;SDS011;40978;52.850;6.506;2023-05-10T15:13:57;10.75;;;9.65;;
55082;SDS011;40978;52.850;6.506;2023-05-10T15:16:22;10.85;;;9.48;;
55082;SDS011;40978;52.850;6.506;2023-05-10T15:18:48;11.10;;;10.00;;